Airfield :
LOGIN :

Register | Disclaimer

   EN    FR    IT 

 










Legend :    VFR   Marginal VFR   IFR   Intensive IFR   Very Intensive IFR
Visi :
Ceiling :
>= 8 km
>= 3000ft
5 to 8 km
1000 to 3000 ft
1500m to 5 km
500 to 1000 ft
800 to 1500m
200 to 500 ft
< 800m
< 200 ft
Symbols :   Thunderstorms  Fog  Heavy snow  Heavy precipitations  Wind > 20 kt
SIGMETs :     Misc.  Thunderstorms  Icing  Turbulence  Mountain Waves  Volcanic Ashes






- Airport Elevation : 49 ft
- IATA code : GLZ


EHGR - Gilze-Rijen Airbase

CURRENT METAR :
  • 280525Z AUTO 09004KT 4200 BR OVC093 04/04 Q1018 GRN

EXPIRED METARs :
  • 280455Z AUTO 10004KT 070V130 4100 BR OVC088 05/04 Q1018 GRN
  • 280425Z AUTO 09005KT 070V130 4600 BR OVC091 05/04 Q1018 GRN
  • 280356Z AUTO 10005KT 4600 BR OVC093 05/04 Q1018 GRN
  • 280355Z AUTO 10006KT 060V130 5000 BR OVC092 05/04 Q1018 WHT
  • 280325Z AUTO 10006KT 050V120 5000 BR OVC092 05/04 Q1018 WHT
  • 280255Z AUTO 09004KT 080V140 6000 BR OVC091 05/04 Q1018 WHT

Expired Forecast.



MET'MAP, your aeronautical weather chart ! - Copyright ORBIFLY December 2007 - Disclaimer

ORBIFLY MET'MAP TEAM :

Programming & Development : Alexandra Zaïnal
Concept & original design : Baudouin d'Aumeries
Assistance for programming : Marc-Olivier Méhu
Technical & hardware support : Manuel Goepfert

Contact : metmap@orbifly.com




SOURCES & CREDITS :

   NOAA